Time;durP1;ratioP1;P1;durP2;ratioP2;P2;SDS_P1;SDS_P2;PMS_P1;PMS_P2;Temp;Humidity;BMP_temperature;BMP_pressure;BME280_temperature;BME280_humidity;BME280_pressure;Samples;Min_cycle;Max_cycle;Signal;HPM_P1;HPM_P2
2022/06/25 00:01:46;;;;;;;1.48;0.75;;;;;;;;;;5000165;28;20114;-84
2022/06/25 00:06:57;;;;;;;1.38;1.00;;;;;;;;;;5001558;28;20033;-84
2022/06/25 00:09:23;;;;;;;1.52;0.95;;;;;;;;;;4994041;28;20123;-84
2022/06/25 00:14:33;;;;;;;1.23;1.13;;;;;;;;;;5001350;28;20557;-84
2022/06/25 00:17:00;;;;;;;2.28;0.80;;;;;;;;;;5003256;28;20125;-83
2022/06/25 00:19:25;;;;;;;1.63;1.00;;;;;;;;;;5003099;28;20133;-84
2022/06/25 00:21:51;;;;;;;1.85;1.30;;;;;;;;;;5008148;28;20117;-84
2022/06/25 00:24:18;;;;;;;0.82;0.80;;;;;;;;;;4992205;28;20030;-84
2022/06/25 00:26:44;;;;;;;2.92;0.85;;;;;;;;;;4988008;28;20026;-84
2022/06/25 00:29:10;;;;;;;1.15;1.05;;;;;;;;;;4992284;28;20085;-83
2022/06/25 00:31:36;;;;;;;1.65;0.98;;;;;;;;;;4992166;28;20018;-84
2022/06/25 00:34:02;;;;;;;6.25;1.85;;;;;;;;;;5002843;28;20030;-84
2022/06/25 00:36:28;;;;;;;0.70;0.70;;;;;;;;;;4991911;28;20117;-84
2022/06/25 00:38:55;;;;;;;10.35;1.40;;;;;;;;;;5000415;28;20041;-84
2022/06/25 00:41:21;;;;;;;1.67;1.48;;;;;;;;;;5000909;28;20112;-84
2022/06/25 00:43:46;;;;;;;2.20;0.77;;;;;;;;;;5006709;28;20689;-84
2022/06/25 00:46:13;;;;;;;1.90;1.38;;;;;;;;;;5002292;28;20104;-84
2022/06/25 00:48:39;;;;;;;1.00;0.80;;;;;;;;;;4992586;28;20117;-84
2022/06/25 00:51:08;;;;;;;0.88;0.85;;;;;;;;;;4991458;28;20026;-84
2022/06/25 00:53:34;;;;;;;0.65;0.63;;;;;;;;;;4992410;28;20078;-84
2022/06/25 00:56:00;;;;;;;2.08;1.33;;;;;;;;;;5004798;28;20026;-84
2022/06/25 00:58:31;;;;;;;2.17;1.10;;;18.40;94.60;;;;;;4991676;28;20491;-84
2022/06/25 01:00:58;;;;;;;3.10;1.58;;;18.50;94.60;;;;;;5012294;28;20029;-85
2022/06/25 01:03:25;;;;;;;1.00;0.90;;;;;;;;;;4993147;28;20396;-84
2022/06/25 01:05:51;;;;;;;3.17;1.30;;;;;;;;;;4991345;28;20026;-84
2022/06/25 01:08:18;;;;;;;1.98;0.95;;;;;;;;;;5005607;28;20741;-85
2022/06/25 01:10:44;;;;;;;2.20;1.40;;;;;;;;;;5003403;28;20058;-84
2022/06/25 01:13:10;;;;;;;1.23;1.05;;;;;;;;;;5000999;28;20034;-85
2022/06/25 01:15:36;;;;;;;0.80;0.70;;;;;;;;;;4991636;28;20172;-84
2022/06/25 01:18:02;;;;;;;2.13;0.90;;;;;;;;;;4992875;28;20594;-84
2022/06/25 01:20:28;;;;;;;1.40;1.25;;;;;;;;;;5000485;28;20042;-84
2022/06/25 01:22:56;;;;;;;4.05;1.30;;;;;;;;;;4991535;28;20629;-84
2022/06/25 01:25:22;;;;;;;5.15;1.00;;;;;;;;;;4991314;28;20084;-84
2022/06/25 01:27:48;;;;;;;2.00;0.90;;;;;;;;;;4992255;28;20066;-85
2022/06/25 01:30:16;;;;;;;0.90;0.85;;;18.20;94.10;;;;;;4991166;28;20035;-86
2022/06/25 01:32:42;;;;;;;1.08;0.98;;;;;;;;;;4991156;28;20053;-85
2022/06/25 01:35:09;;;;;;;5.28;2.60;;;;;;;;;;5002176;28;20022;-84
2022/06/25 01:37:35;;;;;;;1.23;0.80;;;18.30;93.80;;;;;;4990802;28;20038;-86
2022/06/25 01:40:01;;;;;;;0.85;0.80;;;;;;;;;;4992023;28;20070;-84
2022/06/25 01:45:12;;;;;;;2.67;1.77;;;18.00;94.40;;;;;;4998824;28;20080;-84
2022/06/25 01:47:39;;;;;;;1.67;1.00;;;;;;;;;;4998500;28;20041;-84
2022/06/25 01:50:07;;;;;;;1.88;1.27;;;18.00;94.30;;;;;;5001904;28;20025;-84
2022/06/25 01:52:33;;;;;;;5.88;1.88;;;;;;;;;;5001488;28;20125;-84
2022/06/25 01:54:59;;;;;;;1.45;1.08;;;;;;;;;;5001438;28;20029;-85
2022/06/25 01:57:25;;;;;;;1.15;0.63;;;;;;;;;;5006973;28;20038;-84
2022/06/25 01:59:52;;;;;;;1.15;1.02;;;;;;;;;;4990559;28;20058;-84
2022/06/25 02:02:18;;;;;;;4.00;1.10;;;;;;;;;;4990832;28;20038;-84
2022/06/25 02:04:44;;;;;;;1.02;1.02;;;;;;;;;;5001397;28;20034;-84
2022/06/25 02:07:10;;;;;;;1.45;1.17;;;;;;;;;;4989979;28;20550;-85
2022/06/25 02:09:36;;;;;;;1.92;1.75;;;;;;;;;;4991186;28;20038;-84
2022/06/25 02:12:03;;;;;;;1.38;1.17;;;;;;;;;;4990387;28;20068;-85
2022/06/25 02:14:29;;;;;;;1.48;1.13;;;;;;;;;;4990228;28;20031;-85
2022/06/25 02:16:54;;;;;;;0.85;0.82;;;;;;;;;;5001276;28;20105;-84
2022/06/25 02:19:20;;;;;;;2.88;1.02;;;;;;;;;;5000157;28;20033;-84
2022/06/25 02:21:46;;;;;;;3.60;1.00;;;;;;;;;;4991120;28;20599;-84
2022/06/25 02:24:12;;;;;;;0.60;0.60;;;;;;;;;;4990017;28;20077;-83
2022/06/25 02:26:38;;;;;;;1.65;1.05;;;;;;;;;;4985778;28;20069;-84
2022/06/25 02:29:04;;;;;;;1.35;1.00;;;;;;;;;;5001128;28;20045;-84
2022/06/25 02:31:30;;;;;;;1.25;1.20;;;;;;;;;;5000749;28;20112;-85
2022/06/25 02:33:56;;;;;;;0.93;0.90;;;;;;;;;;4991206;28;20019;-85
2022/06/25 02:36:22;;;;;;;1.52;0.98;;;;;;;;;;4987274;28;20030;-84
2022/06/25 02:38:48;;;;;;;3.03;1.13;;;;;;;;;;4990254;28;20049;-85
2022/06/25 02:41:14;;;;;;;0.77;0.77;;;;;;;;;;5001085;28;20452;-84
2022/06/25 02:43:40;;;;;;;1.08;0.90;;;;;;;;;;4990117;28;20054;-85
2022/06/25 02:46:07;;;;;;;1.75;1.20;;;;;;;;;;4998281;28;20479;-85
2022/06/25 02:48:33;;;;;;;3.10;1.17;;;;;;;;;;4989935;28;20037;-85
2022/06/25 02:50:59;;;;;;;0.82;0.80;;;;;;;;;;4989809;28;20411;-84
2022/06/25 02:53:25;;;;;;;1.15;0.70;;;;;;;;;;4989677;28;20041;-85
2022/06/25 02:58:54;;;;;;;3.17;1.08;;;;;;;;;;5000864;28;20049;-84
2022/06/25 03:01:20;;;;;;;1.88;1.00;;;;;;;;;;4998501;28;20033;-84
2022/06/25 03:03:46;;;;;;;1.27;1.17;;;;;;;;;;4998034;28;20502;-85
2022/06/25 03:06:13;;;;;;;1.10;1.10;;;;;;;;;;4995687;28;20060;-85
2022/06/25 03:08:39;;;;;;;1.85;1.23;;;;;;;;;;4997555;28;20475;-84
2022/06/25 03:11:05;;;;;;;2.42;1.48;;;;;;;;;;4989780;28;20088;-85
2022/06/25 03:13:34;;;;;;;1.10;1.10;;;;;;;;;;4989378;28;20053;-85
2022/06/25 03:16:00;;;;;;;1.30;1.20;;;;;;;;;;4996243;28;20092;-84
2022/06/25 03:18:26;;;;;;;1.17;1.00;;;;;;;;;;4988137;28;20042;-85
2022/06/25 03:20:52;;;;;;;3.67;1.45;;;;;;;;;;4985889;28;20182;-84
2022/06/25 03:23:22;;;;;;;1.92;1.20;;;;;;;;;;4999867;28;20034;-84
2022/06/25 03:25:48;;;;;;;3.33;0.93;;;;;;;;;;4989482;28;20030;-84
2022/06/25 03:28:15;;;;;;;3.40;1.05;;;;;;;;;;5000081;28;20033;-84
2022/06/25 03:30:41;;;;;;;1.05;0.88;;;;;;;;;;4989646;28;20035;-84
2022/06/25 03:33:07;;;;;;;2.05;1.13;;;;;;;;;;4988984;28;20034;-85
2022/06/25 03:35:33;;;;;;;4.35;1.00;;;;;;;;;;4989048;28;20049;-84
2022/06/25 03:37:59;;;;;;;2.30;1.13;;;;;;;;;;4999899;28;20027;-84
2022/06/25 03:40:25;;;;;;;1.13;0.95;;;;;;;;;;5004439;28;20033;-85
2022/06/25 03:42:51;;;;;;;1.40;0.98;;;;;;;;;;5000124;28;20046;-85
2022/06/25 03:45:17;;;;;;;2.78;1.42;;;;;;;;;;5000081;28;20146;-85
2022/06/25 03:47:50;;;;;;;1.80;1.38;;;;;;;;;;4999905;28;20509;-84
2022/06/25 03:50:19;;;;;;;3.20;1.20;;;16.90;94.80;;;;;;4993105;28;20042;-84
2022/06/25 03:52:46;;;;;;;3.90;1.20;;;17.00;94.50;;;;;;5004197;28;20107;-84
2022/06/25 03:55:13;;;;;;;1.88;1.30;;;;;;;;;;4993723;28;20030;-84
2022/06/25 03:57:39;;;;;;;1.98;1.27;;;;;;;;;;4993127;28;20045;-84
2022/06/25 04:00:08;;;;;;;1.08;0.98;;;;;;;;;;4992806;28;20023;-84
2022/06/25 04:02:35;;;;;;;3.47;1.00;;;;;;;;;;4992803;28;20169;-84
2022/06/25 04:05:01;;;;;;;1.88;1.15;;;;;;;;;;5003937;28;20513;-84
2022/06/25 04:07:27;;;;;;;1.83;1.40;;;;;;;;;;4992607;28;20057;-85
2022/06/25 04:09:53;;;;;;;2.15;1.77;;;;;;;;;;5017307;28;20483;-84
2022/06/25 04:12:19;;;;;;;1.40;1.17;;;;;;;;;;4998846;28;20026;-84
2022/06/25 04:14:45;;;;;;;3.80;1.83;;;;;;;;;;5014265;28;20030;-86
2022/06/25 04:17:12;;;;;;;2.40;1.38;;;;;;;;;;4992824;28;20513;-84
2022/06/25 04:19:41;;;;;;;2.70;1.80;;;;;;;;;;4992504;28;20045;-85
2022/06/25 04:22:08;;;;;;;2.92;1.45;;;;;;;;;;5000074;28;20344;-84
2022/06/25 04:24:35;;;;;;;2.83;1.30;;;;;;;;;;4992395;28;20037;-84
2022/06/25 04:27:01;;;;;;;3.40;1.63;;;;;;;;;;4992425;28;20026;-85
2022/06/25 04:29:27;;;;;;;4.47;1.40;;;;;;;;;;4992177;28;20479;-86
2022/06/25 04:31:53;;;;;;;1.35;1.25;;;;;;;;;;5003282;28;20121;-85
2022/06/25 04:34:19;;;;;;;2.55;1.33;;;;;;;;;;4991879;28;20177;-83
2022/06/25 04:36:45;;;;;;;1.50;1.40;;;;;;;;;;5000422;28;20399;-84
2022/06/25 04:39:11;;;;;;;1.35;1.25;;;;;;;;;;4995414;28;20038;-85
2022/06/25 04:41:37;;;;;;;3.70;1.80;;;;;;;;;;4992091;28;20030;-84
2022/06/25 04:44:03;;;;;;;1.70;1.33;;;;;;;;;;4991194;28;20046;-85
2022/06/25 04:46:29;;;;;;;3.75;1.23;;;;;;;;;;5003713;28;20034;-84
2022/06/25 04:48:59;;;;;;;0.93;0.77;;;;;;;;;;5001584;28;20026;-85
2022/06/25 04:51:26;;;;;;;1.55;1.45;;;17.40;92.50;;;;;;5008022;28;20041;-84
2022/06/25 04:53:58;;;;;;;1.20;1.10;;;;;;;;;;4987983;28;20113;-84
2022/06/25 04:56:24;;;;;;;1.50;1.10;;;;;;;;;;5016669;28;20076;-84
2022/06/25 04:58:50;;;;;;;1.50;1.13;;;;;;;;;;5002636;28;20439;-84
2022/06/25 05:01:16;;;;;;;1.38;1.08;;;;;;;;;;5003097;28;20026;-85
2022/06/25 05:03:42;;;;;;;1.38;1.27;;;;;;;;;;4992204;28;20030;-85
2022/06/25 05:06:08;;;;;;;1.27;1.17;;;;;;;;;;4993810;28;20034;-84
2022/06/25 05:08:34;;;;;;;2.80;1.30;;;;;;;;;;4996834;28;20073;-85
2022/06/25 05:11:00;;;;;;;1.08;0.98;;;;;;;;;;4999397;28;20076;-85
2022/06/25 05:13:27;;;;;;;1.48;1.05;;;17.30;93.60;;;;;;5002475;28;20031;-83
2022/06/25 05:15:53;;;;;;;1.67;1.10;;;;;;;;;;4998037;28;20026;-85
2022/06/25 05:18:19;;;;;;;6.85;1.40;;;;;;;;;;4992992;28;20042;-84
2022/06/25 05:20:45;;;;;;;2.03;1.38;;;;;;;;;;5013267;28;20106;-84
2022/06/25 05:23:12;;;;;;;1.40;1.30;;;;;;;;;;5006416;28;20069;-84
2022/06/25 05:25:39;;;;;;;1.95;1.10;;;17.60;94.20;;;;;;4999983;28;20183;-85
2022/06/25 05:28:05;;;;;;;1.88;1.65;;;;;;;;;;4992202;28;20035;-84
2022/06/25 05:30:32;;;;;;;1.77;1.55;;;;;;;;;;4992881;28;20489;-84
2022/06/25 05:32:58;;;;;;;4.57;3.15;;;;;;;;;;5010913;28;20121;-84
2022/06/25 05:35:24;;;;;;;1.58;1.30;;;;;;;;;;4991228;28;20022;-84
2022/06/25 05:37:50;;;;;;;2.85;1.85;;;;;;;;;;4991101;28;20093;-85
2022/06/25 05:40:16;;;;;;;2.50;2.30;;;;;;;;;;4990934;28;20062;-84
2022/06/25 05:42:42;;;;;;;3.72;2.70;;;;;;;;;;4998417;28;20105;-83
2022/06/25 05:45:09;;;;;;;1.63;1.50;;;;;;;;;;4998050;28;20083;-83
2022/06/25 05:47:35;;;;;;;2.25;1.77;;;;;;;;;;4998891;28;20054;-83
2022/06/25 05:50:01;;;;;;;2.40;1.40;;;;;;;;;;4990390;28;20065;-83
2022/06/25 05:52:27;;;;;;;3.65;2.75;;;;;;;;;;4993866;28;20030;-82
2022/06/25 05:54:53;;;;;;;6.05;1.85;;;;;;;;;;4991889;28;20026;-82
2022/06/25 05:57:19;;;;;;;6.03;3.03;;;;;;;;;;4992291;28;20399;-82
2022/06/25 05:59:45;;;;;;;3.55;3.25;;;;;;;;;;4989750;28;20507;-82
2022/06/25 06:02:11;;;;;;;3.30;1.88;;;;;;;;;;4990172;28;20531;-83
2022/06/25 06:04:37;;;;;;;2.22;1.67;;;;;;;;;;4991755;28;20026;-82
2022/06/25 06:07:04;;;;;;;5.38;1.42;;;;;;;;;;4997507;28;20030;-83
2022/06/25 06:09:31;;;;;;;2.72;2.05;;;;;;;;;;4989367;28;20208;-79
2022/06/25 06:11:58;;;;;;;2.58;2.17;;;;;;;;;;4994823;28;20046;-79
2022/06/25 06:14:24;;;;;;;4.35;3.35;;;;;;;;;;4998325;28;20646;-79
2022/06/25 06:16:50;;;;;;;2.67;2.13;;;;;;;;;;4984450;28;20444;-81
2022/06/25 06:19:16;;;;;;;3.15;2.53;;;;;;;;;;4986370;28;20408;-82
2022/06/25 06:21:42;;;;;;;2.22;1.63;;;;;;;;;;4988681;28;20113;-81
2022/06/25 06:24:08;;;;;;;3.67;2.88;;;;;;;;;;4986580;28;20026;-81
2022/06/25 06:26:34;;;;;;;3.50;2.65;;;19.20;94.10;;;;;;4990124;28;20026;-82
2022/06/25 06:29:00;;;;;;;3.22;1.83;;;;;;;;;;4986867;28;20111;-82
2022/06/25 06:31:26;;;;;;;3.25;2.95;;;;;;;;;;4988763;28;20099;-82
2022/06/25 06:33:52;;;;;;;3.05;1.45;;;;;;;;;;5002391;28;20031;-83
2022/06/25 06:36:18;;;;;;;1.77;1.50;;;;;;;;;;4988273;28;20030;-80
2022/06/25 06:38:44;;;;;;;1.20;1.10;;;;;;;;;;4987801;28;20113;-83
2022/06/25 06:41:12;;;;;;;1.75;1.35;;;;;;;;;;5003757;28;20030;-87
2022/06/25 06:43:38;;;;;;;1.75;1.20;;;;;;;;;;4989273;28;20078;-90
2022/06/25 06:46:05;;;;;;;1.02;0.80;;;;;;;;;;5000931;28;20038;-90
2022/06/25 06:48:32;;;;;;;1.02;0.65;;;;;;;;;;4987512;28;20042;-91
2022/06/25 06:50:58;;;;;;;1.35;0.98;;;;;;;;;;4993817;28;20030;-89
2022/06/25 06:53:24;;;;;;;1.30;0.90;;;;;;;;;;4998787;28;20030;-89
2022/06/25 06:55:50;;;;;;;1.45;0.70;;;;;;;;;;5013341;28;20023;-91
2022/06/25 06:58:16;;;;;;;1.30;0.93;;;;;;;;;;5002448;28;20695;-91
2022/06/25 07:00:42;;;;;;;1.42;0.70;;;;;;;;;;5001190;28;20077;-90
2022/06/25 07:03:08;;;;;;;0.95;0.77;;;;;;;;;;4997324;28;20030;-90
2022/06/25 07:05:34;;;;;;;2.03;1.38;;;;;;;;;;4995941;28;20029;-89
2022/06/25 07:08:00;;;;;;;4.20;1.02;;;;;;;;;;4995979;28;20123;-90
2022/06/25 07:10:26;;;;;;;1.52;0.43;;;;;;;;;;4994608;28;20092;-90
2022/06/25 07:12:53;;;;;;;1.33;0.90;;;;;;;;;;4994111;28;20105;-90
2022/06/25 07:15:19;;;;;;;0.82;0.77;;;;;;;;;;4994869;28;20601;-90
2022/06/25 07:17:45;;;;;;;1.73;1.02;;;;;;;;;;4997646;28;20030;-90
2022/06/25 07:20:11;;;;;;;1.60;0.60;;;;;;;;;;5015954;28;20031;-91
2022/06/25 07:22:37;;;;;;;0.70;0.60;;;;;;;;;;4997947;28;20026;-91
2022/06/25 07:25:03;;;;;;;0.80;0.70;;;;;;;;;;4996381;28;20022;-90
2022/06/25 07:27:29;;;;;;;3.50;1.98;;;;;;;;;;4992567;28;20053;-88
2022/06/25 07:29:55;;;;;;;1.75;0.73;;;;;;;;;;4994947;28;20065;-91
2022/06/25 07:32:21;;;;;;;0.93;0.40;;;;;;;;;;4994085;28;20522;-89
2022/06/25 07:34:47;;;;;;;1.33;1.08;;;;;;;;;;4994117;28;20046;-90
2022/06/25 07:37:13;;;;;;;2.55;1.80;;;;;;;;;;5006411;28;20040;-90
2022/06/25 07:39:39;;;;;;;3.42;0.68;;;;;;;;;;5009479;28;20498;-91
2022/06/25 07:42:05;;;;;;;1.50;0.68;;;;;;;;;;4991556;28;20030;-90
2022/06/25 07:44:31;;;;;;;3.20;0.88;;;;;;;;;;5004451;28;20065;-88
2022/06/25 07:46:57;;;;;;;0.55;0.47;;;;;;;;;;4992593;28;20655;-90
2022/06/25 07:49:23;;;;;;;8.30;0.63;;;;;;;;;;4989605;28;20029;-91
2022/06/25 07:52:00;;;;;;;2.85;1.13;;;;;;;;;;4991730;28;20113;-87
2022/06/25 07:54:30;;;;;;;0.75;0.50;;;26.10;75.50;;;;;;4990097;28;20037;-90
2022/06/25 07:56:57;;;;;;;0.40;0.30;;;27.40;72.00;;;;;;4993142;28;20026;-90
2022/06/25 07:59:23;;;;;;;0.57;0.25;;;;;;;;;;4991936;28;20046;-90
2022/06/25 08:01:50;;;;;;;0.85;0.20;;;;;;;;;;4994834;28;20030;-89
2022/06/25 08:04:16;;;;;;;0.52;0.20;;;;;;;;;;5007184;28;20038;-89
2022/06/25 08:06:43;;;;;;;2.47;0.30;;;;;;;;;;4989311;28;20038;-92
2022/06/25 08:09:09;;;;;;;0.32;0.28;;;;;;;;;;4994340;28;20116;-90
2022/06/25 08:11:35;;;;;;;1.30;0.30;;;;;;;;;;4994832;28;20027;-89
2022/06/25 08:14:01;;;;;;;0.30;0.25;;;;;;;;;;4994111;28;20044;-90
2022/06/25 08:16:27;;;;;;;1.60;0.15;;;;;;;;;;4991419;28;20045;-90
2022/06/25 08:18:53;;;;;;;0.45;0.45;;;;;;;;;;4998402;28;20058;-90
2022/06/25 08:21:19;;;;;;;;;;;34.30;48.30;;;;;;4996657;28;20018;-89
2022/06/25 08:23:46;;;;;;;0.00;0.00;;;;;;;;;;4996955;28;20435;-90
2022/06/25 08:26:11;;;;;;;;;;;35.00;47.00;;;;;;5015260;28;20034;-89
2022/06/25 08:28:37;;;;;;;;;;;35.50;46.10;;;;;;4998428;28;20055;-88
2022/06/25 08:31:04;;;;;;;2.47;0.32;;;35.80;44.90;;;;;;5000505;28;19913;-86
2022/06/25 08:33:30;;;;;;;5.40;0.20;;;;;;;;;;4992904;28;20041;-86
2022/06/25 08:35:56;;;;;;;0.85;0.32;;;;;;;;;;5001406;28;20023;-88
2022/06/25 08:38:21;;;;;;;0.70;0.20;;;;;;;;;;4996886;28;20125;-88
2022/06/25 08:40:48;;;;;;;1.20;0.30;;;;;;;;;;4990233;28;20471;-87
2022/06/25 08:43:14;;;;;;;0.17;0.17;;;;;;;;;;4991175;28;20511;-87
2022/06/25 08:45:40;;;;;;;0.70;0.25;;;;;;;;;;4991622;28;20562;-86
2022/06/25 08:48:19;;;;;;;0.50;0.30;;;35.50;38.20;;;;;;4990635;28;20054;-86
2022/06/25 08:50:45;;;;;;;1.25;0.30;;;;;;;;;;4989594;28;20129;-83
2022/06/25 08:53:12;;;;;;;0.70;0.10;;;;;;;;;;4989556;28;20507;-84
2022/06/25 08:55:39;;;;;;;1.95;0.35;;;;;;;;;;4989216;28;20026;-86
2022/06/25 08:58:05;;;;;;;0.55;0.10;;;;;;;;;;4988427;28;20046;-86
2022/06/25 09:00:33;;;;;;;0.73;0.30;;;;;;;;;;4989774;28;20109;-86
2022/06/25 09:03:00;;;;;;;1.88;0.32;;;;;;;;;;4989588;28;20057;-88
2022/06/25 09:05:25;;;;;;;;;;;;;;;;;;4990513;28;20053;-85
2022/06/25 09:07:53;;;;;;;0.25;0.15;;;34.50;40.20;;;;;;4989458;28;19941;-86
2022/06/25 09:10:20;;;;;;;0.75;0.75;;;34.40;39.80;;;;;;4989694;28;20042;-86
2022/06/25 09:12:57;;;;;;;0.43;0.22;;;34.80;40.00;;;;;;4988673;28;20018;-86
2022/06/25 09:15:23;;;;;;;;;;;;;;;;;;4989708;28;20040;-85
2022/06/25 09:17:50;;;;;;;1.77;0.20;;;35.10;39.30;;;;;;4989237;28;20440;-87
2022/06/25 09:20:16;;;;;;;0.75;0.30;;;;;;;;;;4989608;28;20026;-86
2022/06/25 09:22:52;;;;;;;0.75;0.30;;;;;;;;;;4989089;28;20053;-86
2022/06/25 09:25:26;;;;;;;1.38;0.20;;;35.00;40.60;;;;;;4988489;28;20125;-86
2022/06/25 09:27:53;;;;;;;0.60;0.20;;;;;;;;;;5004444;28;20030;-87
2022/06/25 09:30:20;;;;;;;0.65;0.20;;;;;;;;;;4988898;28;20144;-86
2022/06/25 09:33:02;;;;;;;0.30;0.22;;;34.40;41.10;;;;;;4988935;28;20030;-87
2022/06/25 09:35:29;;;;;;;0.68;0.40;;;;;;;;;;4988707;28;20845;-86
2022/06/25 09:38:00;;;;;;;8.57;0.95;;;34.20;39.50;;;;;;4988161;28;20032;-88
2022/06/25 09:40:26;;;;;;;0.80;0.40;;;;;;;;;;5004247;28;20034;-86
2022/06/25 09:42:52;;;;;;;0.70;0.40;;;;;;;;;;4989645;28;20034;-88
2022/06/25 09:45:18;;;;;;;0.45;0.25;;;;;;;;;;4988622;28;20034;-86
2022/06/25 09:47:45;;;;;;;0.47;0.20;;;;;;;;;;4990744;28;20027;-85
2022/06/25 09:50:19;;;;;;;3.78;0.57;;;35.50;39.40;;;;;;4988756;28;20301;-87
2022/06/25 09:52:59;;;;;;;0.70;0.35;;;;;;;;;;4988524;28;20062;-87
2022/06/25 09:55:27;;;;;;;3.90;0.40;;;;;;;;;;4986472;28;20049;-86
2022/06/25 09:57:53;;;;;;;0.75;0.57;;;;;;;;;;4988973;28;20137;-83
2022/06/25 10:00:20;;;;;;;0.75;0.32;;;34.20;41.20;;;;;;4988879;28;20034;-87
2022/06/25 10:02:48;;;;;;;0.35;0.20;;;34.50;39.20;;;;;;4989250;28;20534;-87
2022/06/25 10:05:23;;;;;;;1.20;0.40;;;35.10;39.50;;;;;;4987693;28;20034;-86
2022/06/25 10:08:00;;;;;;;1.88;0.40;;;34.90;39.80;;;;;;4986541;28;20406;-86
2022/06/25 10:10:29;;;;;;;0.75;0.30;;;35.70;38.60;;;;;;4988736;28;20030;-87
2022/06/25 10:12:55;;;;;;;3.28;0.60;;;;;;;;;;4986112;28;20483;-83
2022/06/25 10:15:23;;;;;;;4.95;1.02;;;;;;;;;;4986398;28;20037;-84
2022/06/25 10:17:53;;;;;;;3.70;1.00;;;;;;;;;;4985495;28;20113;-83
2022/06/25 10:20:20;;;;;;;0.65;0.30;;;36.60;36.80;;;;;;4987494;28;20038;-84
2022/06/25 10:22:48;;;;;;;0.68;0.57;;;36.60;38.00;;;;;;4987006;28;20022;-84
2022/06/25 10:25:17;;;;;;;2.13;0.32;;;35.50;37.50;;;;;;4987660;28;20042;-84
2022/06/25 10:27:49;;;;;;;0.85;0.28;;;34.90;38.30;;;;;;4986072;28;20045;-85
2022/06/25 10:30:33;;;;;;;2.10;0.43;;;34.30;40.30;;;;;;4984971;28;20022;-84
2022/06/25 10:32:59;;;;;;;2.53;0.22;;;;;;;;;;4986309;28;20114;-87
2022/06/25 10:35:32;;;;;;;3.25;0.60;;;;;;;;;;4987916;28;20105;-85
2022/06/25 10:38:03;;;;;;;0.70;0.63;;;34.80;39.70;;;;;;4986526;28;20068;-86
2022/06/25 10:40:30;;;;;;;1.15;0.38;;;34.80;38.80;;;;;;4986812;28;20582;-85
2022/06/25 10:42:59;;;;;;;0.55;0.55;;;;;;;;;;4986545;28;20136;-87
2022/06/25 10:45:26;;;;;;;0.52;0.30;;;;;;;;;;5005976;28;20400;-87
2022/06/25 10:47:52;;;;;;;0.90;0.25;;;;;;;;;;4988498;28;20088;-86
2022/06/25 10:50:21;;;;;;;0.57;0.30;;;;;;;;;;4998936;28;20389;-86
2022/06/25 10:53:02;;;;;;;4.95;0.40;;;32.10;42.90;;;;;;4999720;28;20232;-86
2022/06/25 10:55:40;;;;;;;0.43;0.30;;;32.40;43.90;;;;;;4999427;28;20191;-86
2022/06/25 10:58:11;;;;;;;1.40;0.40;;;32.60;44.10;;;;;;4988926;28;20065;-88
2022/06/25 11:00:51;;;;;;;0.57;0.30;;;;;;;;;;4989261;28;20041;-87
2022/06/25 11:03:18;;;;;;;1.15;0.30;;;;;;;;;;4989746;28;20026;-86
2022/06/25 11:05:47;;;;;;;;;;;30.70;46.80;;;;;;4987884;28;20038;-87
2022/06/25 11:08:13;;;;;;;1.20;0.32;;;;;;;;;;4986913;28;19914;-87
2022/06/25 11:10:40;;;;;;;0.77;0.23;;;;;;;;;;4989749;28;20026;-88
2022/06/25 11:13:07;;;;;;;2.60;1.55;;;;;;;;;;4990745;28;20444;-87
2022/06/25 11:15:45;;;;;;;0.98;0.60;;;28.80;49.30;;;;;;4992830;28;20129;-86
2022/06/25 11:18:12;;;;;;;2.50;1.70;;;28.50;50.50;;;;;;4993040;28;20503;-86
2022/06/25 11:20:39;;;;;;;2.20;0.52;;;;;;;;;;4991813;28;20026;-88
2022/06/25 11:23:05;;;;;;;2.92;0.50;;;;;;;;;;4988625;28;20507;-86
2022/06/25 11:28:48;;;;;;;0.55;0.38;;;;;;;;;;4997770;28;20475;-88
2022/06/25 11:31:19;;;;;;;0.80;0.50;;;;;;;;;;4984927;28;20116;-88
2022/06/25 11:33:45;;;;;;;0.82;0.40;;;;;;;;;;4994867;28;20284;-88
2022/06/25 11:36:12;;;;;;;1.38;0.40;;;;;;;;;;5009127;28;20475;-87
2022/06/25 11:38:40;;;;;;;0.30;0.28;;;28.10;52.70;;;;;;4995833;28;20068;-87
2022/06/25 11:41:06;;;;;;;0.82;0.30;;;;;;;;;;4998524;28;20034;-89
2022/06/25 11:43:34;;;;;;;1.10;0.50;;;;;;;;;;4985709;28;20104;-86
2022/06/25 11:46:00;;;;;;;2.05;0.50;;;28.40;53.00;;;;;;4999499;28;20029;-87
2022/06/25 11:48:31;;;;;;;3.22;0.85;;;;;;;;;;4988477;28;20045;-87
2022/06/25 11:51:02;;;;;;;0.57;0.32;;;28.40;54.50;;;;;;4988352;28;20129;-87
2022/06/25 11:53:28;;;;;;;0.45;0.30;;;;;;;;;;4995925;28;20141;-88
2022/06/25 11:56:01;;;;;;;0.63;0.57;;;;;;;;;;4987570;28;20038;-86
2022/06/25 11:58:28;;;;;;;2.70;0.80;;;;;;;;;;4986023;28;20818;-87
2022/06/25 12:00:58;;;;;;;0.52;0.35;;;27.90;53.60;;;;;;4991884;28;20026;-88
2022/06/25 12:03:24;;;;;;;0.77;0.60;;;;;;;;;;4990914;28;20490;-85
2022/06/25 12:05:51;;;;;;;0.88;0.57;;;27.20;54.40;;;;;;4991159;28;20026;-88
2022/06/25 12:08:17;;;;;;;1.42;0.90;;;;;;;;;;5001390;28;20057;-89
2022/06/25 12:10:45;;;;;;;0.35;0.35;;;;;;;;;;4986574;28;20029;-87
2022/06/25 12:13:14;;;;;;;0.43;0.32;;;;;;;;;;4988132;28;20120;-87
2022/06/25 12:15:40;;;;;;;0.70;0.43;;;;;;;;;;4991728;28;20042;-88
2022/06/25 12:18:06;;;;;;;0.65;0.47;;;;;;;;;;4988386;28;20026;-88
2022/06/25 12:20:33;;;;;;;0.60;0.40;;;;;;;;;;5000066;28;20112;-88
2022/06/25 12:22:59;;;;;;;0.73;0.40;;;;;;;;;;4991657;28;20022;-87
2022/06/25 12:25:25;;;;;;;3.50;1.87;;;;;;;;;;4991076;28;20517;-87
2022/06/25 12:27:51;;;;;;;1.40;0.50;;;;;;;;;;4999514;28;20030;-87
2022/06/25 12:30:22;;;;;;;1.60;0.43;;;;;;;;;;4997287;28;20030;-87
2022/06/25 12:32:48;;;;;;;1.90;0.40;;;;;;;;;;4997264;28;20647;-88
2022/06/25 12:35:22;;;;;;;0.88;0.50;;;;;;;;;;5005990;28;20033;-87
2022/06/25 12:38:11;;;;;;;0.60;0.50;;;26.70;57.10;;;;;;4998067;28;20178;-87
2022/06/25 12:40:39;;;;;;;0.70;0.43;;;;;;;;;;5001380;28;20026;-88
2022/06/25 12:43:06;;;;;;;1.27;0.47;;;;;;;;;;5011969;28;20038;-89
2022/06/25 12:45:33;;;;;;;0.52;0.25;;;;;;;;;;4998306;28;20034;-88
2022/06/25 12:47:59;;;;;;;0.47;0.40;;;;;;;;;;4996549;28;20155;-87
2022/06/25 12:50:27;;;;;;;2.08;0.52;;;;;;;;;;5001221;28;20030;-86
2022/06/25 12:52:53;;;;;;;0.98;0.65;;;;;;;;;;5006427;28;20041;-87
2022/06/25 12:55:20;;;;;;;1.50;0.53;;;;;;;;;;4990258;28;20076;-85
2022/06/25 12:57:46;;;;;;;0.38;0.25;;;;;;;;;;4997965;28;20388;-85
2022/06/25 13:00:25;;;;;;;1.65;1.08;;;25.90;57.30;;;;;;4994337;28;20042;-86
2022/06/25 13:02:51;;;;;;;3.83;0.57;;;;;;;;;;4989939;28;20404;-85
2022/06/25 13:05:18;;;;;;;1.15;0.38;;;;;;;;;;5005120;28;20499;-83
2022/06/25 13:07:45;;;;;;;0.52;0.30;;;;;;;;;;4985583;28;20450;-83
2022/06/25 13:10:12;;;;;;;0.57;0.30;;;26.30;57.40;;;;;;5004278;28;20579;-86
2022/06/25 13:12:38;;;;;;;1.92;0.50;;;;;;;;;;4989417;28;20181;-85
2022/06/25 13:15:05;;;;;;;5.30;0.80;;;;;;;;;;4990120;28;20037;-86
2022/06/25 13:17:31;;;;;;;0.73;0.47;;;;;;;;;;4989423;28;20426;-87
2022/06/25 13:19:57;;;;;;;1.65;0.52;;;;;;;;;;4992694;28;20042;-86
2022/06/25 13:22:23;;;;;;;0.88;0.32;;;;;;;;;;5001381;28;20099;-87
2022/06/25 13:24:49;;;;;;;0.77;0.40;;;;;;;;;;4990138;28;20022;-85
2022/06/25 13:27:15;;;;;;;0.80;0.52;;;;;;;;;;4989759;28;20400;-86
2022/06/25 13:29:42;;;;;;;2.15;0.68;;;;;;;;;;4989503;28;20030;-85
2022/06/25 13:32:08;;;;;;;;;;;;;;;;;;5001484;28;20038;-85
2022/06/25 13:34:34;;;;;;;0.53;0.30;;;;;;;;;;4990312;28;20379;-86
2022/06/25 13:37:00;;;;;;;0.60;0.45;;;;;;;;;;4999076;28;20026;-85
2022/06/25 13:39:26;;;;;;;0.85;0.30;;;;;;;;;;4995555;28;20041;-84
2022/06/25 13:41:52;;;;;;;0.60;0.32;;;;;;;;;;4996410;28;20498;-84
2022/06/25 13:44:18;;;;;;;10.20;1.17;;;;;;;;;;5000290;28;20162;-84
2022/06/25 13:46:45;;;;;;;7.50;0.73;;;;;;;;;;5015827;28;20113;-88
2022/06/25 13:49:11;;;;;;;2.95;0.93;;;;;;;;;;4987707;28;20439;-90
2022/06/25 13:51:37;;;;;;;3.07;0.90;;;;;;;;;;4993220;28;20029;-90
2022/06/25 13:54:03;;;;;;;1.35;1.25;;;;;;;;;;4992294;28;20517;-89
2022/06/25 13:56:31;;;;;;;5.23;0.90;;;;;;;;;;4992534;28;20108;-89
2022/06/25 13:58:57;;;;;;;2.65;1.00;;;;;;;;;;4993165;28;20732;-90
2022/06/25 14:01:23;;;;;;;3.17;0.93;;;;;;;;;;5001585;28;20026;-92
2022/06/25 14:03:49;;;;;;;11.38;2.17;;;;;;;;;;4994287;28;20022;-90
2022/06/25 14:06:16;;;;;;;3.15;0.77;;;;;;;;;;4991175;28;20027;-90
2022/06/25 14:08:43;;;;;;;3.22;0.60;;;;;;;;;;4993258;28;20495;-89
2022/06/25 14:11:11;;;;;;;1.88;0.80;;;;;;;;;;4993773;28;20037;-91
2022/06/25 14:13:37;;;;;;;5.40;0.55;;;;;;;;;;5003611;28;20093;-91
2022/06/25 14:16:03;;;;;;;0.65;0.60;;;;;;;;;;5008584;28;20026;-90
2022/06/25 14:18:29;;;;;;;1.35;0.75;;;;;;;;;;4992754;28;20071;-89
2022/06/25 14:20:55;;;;;;;2.78;0.60;;;;;;;;;;4992280;28;20046;-90
2022/06/25 14:23:22;;;;;;;0.30;0.30;;;;;;;;;;4990725;28;20034;-91
2022/06/25 14:25:48;;;;;;;1.50;0.43;;;;;;;;;;4989304;28;20033;-90
2022/06/25 14:28:16;;;;;;;0.70;0.47;;;;;;;;;;4992510;28;20112;-91
2022/06/25 14:30:42;;;;;;;1.08;0.50;;;;;;;;;;4990210;28;20030;-90
2022/06/25 14:33:08;;;;;;;1.33;0.70;;;;;;;;;;4990010;28;20488;-87
2022/06/25 14:35:35;;;;;;;0.60;0.40;;;;;;;;;;4990414;28;20540;-88
2022/06/25 14:43:30;;;;;;;1.40;0.40;;;;;;;;;;4990133;28;20117;-88
2022/06/25 14:45:56;;;;;;;2.17;0.45;;;;;;;;;;4998825;28;20034;-88